sensor_id;sensor_type;location;lat;lon;timestamp;P1;durP1;ratioP1;P2;durP2;ratioP2
61483;SDS011;47349;55.640;37.692;2022-09-13T00:00:04;10.95;;;8.32;;
61483;SDS011;47349;55.640;37.692;2022-09-13T00:02:46;11.80;;;8.82;;
61483;SDS011;47349;55.640;37.692;2022-09-13T00:05:29;13.43;;;7.90;;
61483;SDS011;47349;55.640;37.692;2022-09-13T00:08:12;12.80;;;8.70;;
61483;SDS011;47349;55.640;37.692;2022-09-13T00:10:54;10.77;;;8.50;;
61483;SDS011;47349;55.640;37.692;2022-09-13T00:13:36;12.43;;;9.02;;
61483;SDS011;47349;55.640;37.692;2022-09-13T00:16:18;14.00;;;8.70;;
61483;SDS011;47349;55.640;37.692;2022-09-13T00:19:03;13.63;;;9.02;;
61483;SDS011;47349;55.640;37.692;2022-09-13T00:21:44;13.38;;;8.88;;
61483;SDS011;47349;55.640;37.692;2022-09-13T00:24:26;12.88;;;9.27;;
61483;SDS011;47349;55.640;37.692;2022-09-13T00:27:09;12.73;;;8.27;;
61483;SDS011;47349;55.640;37.692;2022-09-13T00:29:56;17.02;;;9.63;;
61483;SDS011;47349;55.640;37.692;2022-09-13T00:32:39;13.13;;;9.10;;
61483;SDS011;47349;55.640;37.692;2022-09-13T00:35:25;11.73;;;7.82;;
61483;SDS011;47349;55.640;37.692;2022-09-13T00:38:07;13.40;;;8.98;;
61483;SDS011;47349;55.640;37.692;2022-09-13T00:40:48;16.77;;;8.57;;
61483;SDS011;47349;55.640;37.692;2022-09-13T00:43:20;15.18;;;9.23;;
61483;SDS011;47349;55.640;37.692;2022-09-13T00:46:42;13.65;;;9.25;;
61483;SDS011;47349;55.640;37.692;2022-09-13T00:49:35;13.90;;;8.57;;
61483;SDS011;47349;55.640;37.692;2022-09-13T00:52:21;14.85;;;9.05;;
61483;SDS011;47349;55.640;37.692;2022-09-13T00:55:05;17.52;;;9.60;;
61483;SDS011;47349;55.640;37.692;2022-09-13T00:58:12;12.80;;;8.82;;
61483;SDS011;47349;55.640;37.692;2022-09-13T01:01:03;11.50;;;8.40;;
61483;SDS011;47349;55.640;37.692;2022-09-13T01:03:46;14.07;;;9.27;;
61483;SDS011;47349;55.640;37.692;2022-09-13T01:06:35;13.45;;;8.60;;
61483;SDS011;47349;55.640;37.692;2022-09-13T01:09:21;11.43;;;9.05;;
61483;SDS011;47349;55.640;37.692;2022-09-13T01:12:07;11.55;;;9.00;;
61483;SDS011;47349;55.640;37.692;2022-09-13T01:15:07;14.07;;;9.30;;
61483;SDS011;47349;55.640;37.692;2022-09-13T01:17:49;11.60;;;8.30;;
61483;SDS011;47349;55.640;37.692;2022-09-13T01:21:24;15.80;;;9.20;;
61483;SDS011;47349;55.640;37.692;2022-09-13T01:38:53;9.27;;;7.53;;
61483;SDS011;47349;55.640;37.692;2022-09-13T01:47:51;10.02;;;8.05;;
61483;SDS011;47349;55.640;37.692;2022-09-13T01:50:43;11.02;;;8.07;;
61483;SDS011;47349;55.640;37.692;2022-09-13T01:56:40;12.18;;;8.45;;
61483;SDS011;47349;55.640;37.692;2022-09-13T02:08:31;14.38;;;9.63;;
61483;SDS011;47349;55.640;37.692;2022-09-13T02:11:18;15.45;;;9.60;;
61483;SDS011;47349;55.640;37.692;2022-09-13T02:14:14;15.50;;;10.73;;
61483;SDS011;47349;55.640;37.692;2022-09-13T02:17:01;16.15;;;11.73;;
61483;SDS011;47349;55.640;37.692;2022-09-13T02:20:26;22.05;;;12.75;;
61483;SDS011;47349;55.640;37.692;2022-09-13T02:23:01;24.10;;;14.40;;
61483;SDS011;47349;55.640;37.692;2022-09-13T02:26:03;23.42;;;15.63;;
61483;SDS011;47349;55.640;37.692;2022-09-13T02:29:06;28.13;;;17.98;;
61483;SDS011;47349;55.640;37.692;2022-09-13T02:34:47;30.02;;;18.92;;
61483;SDS011;47349;55.640;37.692;2022-09-13T02:37:37;28.58;;;19.85;;
61483;SDS011;47349;55.640;37.692;2022-09-13T02:40:20;27.23;;;17.85;;
61483;SDS011;47349;55.640;37.692;2022-09-13T02:53:02;25.70;;;15.50;;
61483;SDS011;47349;55.640;37.692;2022-09-13T02:56:04;23.88;;;15.65;;
61483;SDS011;47349;55.640;37.692;2022-09-13T02:59:02;19.98;;;14.25;;
61483;SDS011;47349;55.640;37.692;2022-09-13T03:02:03;19.08;;;14.40;;
61483;SDS011;47349;55.640;37.692;2022-09-13T03:04:49;20.80;;;14.38;;
61483;SDS011;47349;55.640;37.692;2022-09-13T03:07:30;21.33;;;13.90;;
61483;SDS011;47349;55.640;37.692;2022-09-13T03:10:34;20.00;;;13.02;;
61483;SDS011;47349;55.640;37.692;2022-09-13T03:16:51;19.75;;;12.68;;
61483;SDS011;47349;55.640;37.692;2022-09-13T03:32:01;15.35;;;10.32;;
61483;SDS011;47349;55.640;37.692;2022-09-13T03:40:21;15.32;;;10.00;;
61483;SDS011;47349;55.640;37.692;2022-09-13T03:46:43;17.33;;;10.20;;
61483;SDS011;47349;55.640;37.692;2022-09-13T03:50:48;14.57;;;9.63;;
61483;SDS011;47349;55.640;37.692;2022-09-13T03:54:04;15.45;;;8.95;;
61483;SDS011;47349;55.640;37.692;2022-09-13T03:56:35;14.43;;;9.70;;
61483;SDS011;47349;55.640;37.692;2022-09-13T03:59:17;16.98;;;9.40;;
61483;SDS011;47349;55.640;37.692;2022-09-13T04:02:00;18.63;;;9.95;;
61483;SDS011;47349;55.640;37.692;2022-09-13T04:04:41;19.35;;;9.93;;
61483;SDS011;47349;55.640;37.692;2022-09-13T04:07:26;17.67;;;9.15;;
61483;SDS011;47349;55.640;37.692;2022-09-13T04:10:09;12.93;;;8.70;;
61483;SDS011;47349;55.640;37.692;2022-09-13T04:13:11;15.20;;;9.98;;
61483;SDS011;47349;55.640;37.692;2022-09-13T04:41:58;16.02;;;9.70;;
61483;SDS011;47349;55.640;37.692;2022-09-13T04:44:48;14.90;;;9.90;;
61483;SDS011;47349;55.640;37.692;2022-09-13T04:47:29;15.18;;;10.45;;
61483;SDS011;47349;55.640;37.692;2022-09-13T04:49:57;17.60;;;9.43;;
61483;SDS011;47349;55.640;37.692;2022-09-13T04:52:25;18.45;;;10.45;;
61483;SDS011;47349;55.640;37.692;2022-09-13T04:54:55;16.67;;;9.93;;
61483;SDS011;47349;55.640;37.692;2022-09-13T04:57:32;19.88;;;9.77;;
61483;SDS011;47349;55.640;37.692;2022-09-13T05:01:20;14.55;;;10.35;;
61483;SDS011;47349;55.640;37.692;2022-09-13T05:04:23;16.27;;;10.55;;
61483;SDS011;47349;55.640;37.692;2022-09-13T05:06:52;16.38;;;10.05;;
61483;SDS011;47349;55.640;37.692;2022-09-13T05:13:56;18.67;;;10.05;;
61483;SDS011;47349;55.640;37.692;2022-09-13T05:16:42;17.33;;;10.57;;
61483;SDS011;47349;55.640;37.692;2022-09-13T05:19:10;14.75;;;9.50;;
61483;SDS011;47349;55.640;37.692;2022-09-13T05:21:53;14.40;;;9.82;;
61483;SDS011;47349;55.640;37.692;2022-09-13T05:24:35;14.27;;;10.30;;
61483;SDS011;47349;55.640;37.692;2022-09-13T05:27:17;21.45;;;10.38;;
61483;SDS011;47349;55.640;37.692;2022-09-13T05:29:47;15.13;;;10.50;;
61483;SDS011;47349;55.640;37.692;2022-09-13T05:32:29;16.08;;;10.45;;
61483;SDS011;47349;55.640;37.692;2022-09-13T05:35:12;15.70;;;10.52;;
61483;SDS011;47349;55.640;37.692;2022-09-13T05:37:56;16.77;;;9.23;;
61483;SDS011;47349;55.640;37.692;2022-09-13T05:40:38;16.05;;;9.98;;
61483;SDS011;47349;55.640;37.692;2022-09-13T05:43:10;15.02;;;9.88;;
61483;SDS011;47349;55.640;37.692;2022-09-13T05:46:01;18.55;;;9.77;;
61483;SDS011;47349;55.640;37.692;2022-09-13T05:48:45;16.55;;;9.63;;
61483;SDS011;47349;55.640;37.692;2022-09-13T05:51:29;14.30;;;10.38;;
61483;SDS011;47349;55.640;37.692;2022-09-13T05:54:11;14.07;;;9.32;;
61483;SDS011;47349;55.640;37.692;2022-09-13T05:56:54;15.43;;;9.82;;
61483;SDS011;47349;55.640;37.692;2022-09-13T05:59:41;15.95;;;9.13;;
61483;SDS011;47349;55.640;37.692;2022-09-13T06:02:11;14.23;;;9.50;;
61483;SDS011;47349;55.640;37.692;2022-09-13T06:04:43;12.90;;;9.43;;
61483;SDS011;47349;55.640;37.692;2022-09-13T06:07:29;14.63;;;8.98;;
61483;SDS011;47349;55.640;37.692;2022-09-13T06:09:59;14.30;;;9.18;;
61483;SDS011;47349;55.640;37.692;2022-09-13T06:12:41;19.00;;;9.73;;
61483;SDS011;47349;55.640;37.692;2022-09-13T06:15:22;13.93;;;8.18;;
61483;SDS011;47349;55.640;37.692;2022-09-13T06:18:03;15.88;;;9.63;;
61483;SDS011;47349;55.640;37.692;2022-09-13T06:20:31;20.60;;;9.70;;
61483;SDS011;47349;55.640;37.692;2022-09-13T06:23:13;16.00;;;9.68;;
61483;SDS011;47349;55.640;37.692;2022-09-13T06:25:42;14.65;;;9.73;;
61483;SDS011;47349;55.640;37.692;2022-09-13T06:28:10;17.15;;;10.27;;
61483;SDS011;47349;55.640;37.692;2022-09-13T06:30:37;16.13;;;9.43;;
61483;SDS011;47349;55.640;37.692;2022-09-13T06:33:05;20.30;;;9.93;;
61483;SDS011;47349;55.640;37.692;2022-09-13T06:35:32;16.80;;;8.98;;
61483;SDS011;47349;55.640;37.692;2022-09-13T06:38:00;23.67;;;9.95;;
61483;SDS011;47349;55.640;37.692;2022-09-13T06:40:27;14.98;;;9.52;;
61483;SDS011;47349;55.640;37.692;2022-09-13T06:42:57;17.48;;;9.38;;
61483;SDS011;47349;55.640;37.692;2022-09-13T06:45:25;18.17;;;9.65;;
61483;SDS011;47349;55.640;37.692;2022-09-13T06:47:54;17.35;;;9.40;;
61483;SDS011;47349;55.640;37.692;2022-09-13T06:50:22;16.98;;;9.80;;
61483;SDS011;47349;55.640;37.692;2022-09-13T06:52:49;20.33;;;9.52;;
61483;SDS011;47349;55.640;37.692;2022-09-13T06:55:17;19.10;;;10.00;;
61483;SDS011;47349;55.640;37.692;2022-09-13T06:57:44;16.33;;;8.27;;
61483;SDS011;47349;55.640;37.692;2022-09-13T07:00:13;15.75;;;9.48;;
61483;SDS011;47349;55.640;37.692;2022-09-13T07:02:41;12.90;;;8.65;;
61483;SDS011;47349;55.640;37.692;2022-09-13T07:05:13;14.73;;;8.48;;
61483;SDS011;47349;55.640;37.692;2022-09-13T07:07:44;16.27;;;8.95;;
61483;SDS011;47349;55.640;37.692;2022-09-13T07:10:20;14.90;;;8.30;;
61483;SDS011;47349;55.640;37.692;2022-09-13T07:12:47;13.75;;;8.20;;
61483;SDS011;47349;55.640;37.692;2022-09-13T07:15:15;15.38;;;7.85;;
61483;SDS011;47349;55.640;37.692;2022-09-13T07:17:43;14.25;;;8.48;;
61483;SDS011;47349;55.640;37.692;2022-09-13T07:20:14;18.27;;;9.55;;
61483;SDS011;47349;55.640;37.692;2022-09-13T07:22:43;18.85;;;10.50;;
61483;SDS011;47349;55.640;37.692;2022-09-13T07:25:24;13.38;;;8.73;;
61483;SDS011;47349;55.640;37.692;2022-09-13T07:27:53;12.88;;;8.77;;
61483;SDS011;47349;55.640;37.692;2022-09-13T07:30:22;13.13;;;8.88;;
61483;SDS011;47349;55.640;37.692;2022-09-13T07:33:06;17.75;;;9.02;;
61483;SDS011;47349;55.640;37.692;2022-09-13T07:35:36;15.60;;;8.32;;
61483;SDS011;47349;55.640;37.692;2022-09-13T07:38:05;12.60;;;8.52;;
61483;SDS011;47349;55.640;37.692;2022-09-13T07:40:35;13.23;;;7.93;;
61483;SDS011;47349;55.640;37.692;2022-09-13T07:43:03;13.27;;;8.65;;
61483;SDS011;47349;55.640;37.692;2022-09-13T07:45:44;16.17;;;10.00;;
61483;SDS011;47349;55.640;37.692;2022-09-13T07:48:16;12.05;;;7.35;;
61483;SDS011;47349;55.640;37.692;2022-09-13T07:50:43;12.40;;;7.75;;
61483;SDS011;47349;55.640;37.692;2022-09-13T07:53:10;14.15;;;8.13;;
61483;SDS011;47349;55.640;37.692;2022-09-13T07:55:37;10.50;;;7.45;;
61483;SDS011;47349;55.640;37.692;2022-09-13T07:58:05;10.77;;;7.47;;
61483;SDS011;47349;55.640;37.692;2022-09-13T08:00:32;12.43;;;7.65;;
61483;SDS011;47349;55.640;37.692;2022-09-13T08:03:00;12.43;;;6.88;;
61483;SDS011;47349;55.640;37.692;2022-09-13T08:05:29;13.52;;;7.53;;
61483;SDS011;47349;55.640;37.692;2022-09-13T08:08:05;13.20;;;6.82;;
61483;SDS011;47349;55.640;37.692;2022-09-13T08:10:48;8.00;;;6.15;;
61483;SDS011;47349;55.640;37.692;2022-09-13T08:13:19;9.75;;;6.13;;
61483;SDS011;47349;55.640;37.692;2022-09-13T08:16:03;12.40;;;6.15;;
61483;SDS011;47349;55.640;37.692;2022-09-13T08:18:46;10.48;;;6.20;;
61483;SDS011;47349;55.640;37.692;2022-09-13T08:21:17;12.77;;;6.22;;
61483;SDS011;47349;55.640;37.692;2022-09-13T08:23:46;12.75;;;5.93;;
61483;SDS011;47349;55.640;37.692;2022-09-13T08:26:15;9.80;;;6.22;;
61483;SDS011;47349;55.640;37.692;2022-09-13T08:28:43;9.98;;;6.10;;
61483;SDS011;47349;55.640;37.692;2022-09-13T08:31:12;12.02;;;6.32;;
61483;SDS011;47349;55.640;37.692;2022-09-13T08:33:57;13.55;;;5.90;;
61483;SDS011;47349;55.640;37.692;2022-09-13T08:36:25;11.20;;;5.78;;
61483;SDS011;47349;55.640;37.692;2022-09-13T08:38:55;12.15;;;5.97;;
61483;SDS011;47349;55.640;37.692;2022-09-13T08:44:19;11.13;;;6.03;;
61483;SDS011;47349;55.640;37.692;2022-09-13T08:47:25;11.55;;;5.72;;
61483;SDS011;47349;55.640;37.692;2022-09-13T08:50:13;7.95;;;4.88;;
61483;SDS011;47349;55.640;37.692;2022-09-13T09:07:30;6.60;;;3.92;;
61483;SDS011;47349;55.640;37.692;2022-09-13T09:10:16;5.55;;;4.20;;
61483;SDS011;47349;55.640;37.692;2022-09-13T09:15:41;6.50;;;3.67;;
61483;SDS011;47349;55.640;37.692;2022-09-13T09:18:57;8.98;;;4.07;;
61483;SDS011;47349;55.640;37.692;2022-09-13T09:21:17;5.22;;;3.83;;
61483;SDS011;47349;55.640;37.692;2022-09-13T09:26:19;4.18;;;3.53;;
61483;SDS011;47349;55.640;37.692;2022-09-13T09:28:57;5.05;;;3.38;;
61483;SDS011;47349;55.640;37.692;2022-09-13T09:40:58;4.40;;;3.10;;
61483;SDS011;47349;55.640;37.692;2022-09-13T09:43:34;4.43;;;3.40;;
61483;SDS011;47349;55.640;37.692;2022-09-13T09:46:07;8.98;;;3.60;;
61483;SDS011;47349;55.640;37.692;2022-09-13T09:48:53;5.43;;;3.35;;
61483;SDS011;47349;55.640;37.692;2022-09-13T09:51:28;5.45;;;2.83;;
61483;SDS011;47349;55.640;37.692;2022-09-13T09:54:11;4.15;;;2.88;;
61483;SDS011;47349;55.640;37.692;2022-09-13T09:56:50;8.07;;;2.58;;
61483;SDS011;47349;55.640;37.692;2022-09-13T09:59:25;4.35;;;2.50;;
61483;SDS011;47349;55.640;37.692;2022-09-13T10:02:25;2.80;;;2.50;;
61483;SDS011;47349;55.640;37.692;2022-09-13T10:05:06;4.40;;;2.05;;
61483;SDS011;47349;55.640;37.692;2022-09-13T10:07:33;3.30;;;1.77;;
61483;SDS011;47349;55.640;37.692;2022-09-13T10:10:57;4.13;;;2.13;;
61483;SDS011;47349;55.640;37.692;2022-09-13T10:15:59;8.88;;;2.17;;
61483;SDS011;47349;55.640;37.692;2022-09-13T10:18:33;3.97;;;2.15;;
61483;SDS011;47349;55.640;37.692;2022-09-13T10:23:48;5.85;;;2.33;;
61483;SDS011;47349;55.640;37.692;2022-09-13T10:26:32;8.68;;;2.65;;
61483;SDS011;47349;55.640;37.692;2022-09-13T10:29:14;3.88;;;2.47;;
61483;SDS011;47349;55.640;37.692;2022-09-13T10:31:56;7.50;;;3.45;;
61483;SDS011;47349;55.640;37.692;2022-09-13T10:34:32;4.60;;;2.20;;
61483;SDS011;47349;55.640;37.692;2022-09-13T10:40:07;7.78;;;3.55;;
61483;SDS011;47349;55.640;37.692;2022-09-13T10:43:00;3.25;;;2.60;;
61483;SDS011;47349;55.640;37.692;2022-09-13T10:45:47;4.00;;;2.72;;
61483;SDS011;47349;55.640;37.692;2022-09-13T10:48:30;5.32;;;2.67;;
61483;SDS011;47349;55.640;37.692;2022-09-13T10:54:19;3.88;;;2.33;;
61483;SDS011;47349;55.640;37.692;2022-09-13T10:56:50;3.92;;;2.20;;
61483;SDS011;47349;55.640;37.692;2022-09-13T10:59:32;5.72;;;3.22;;
61483;SDS011;47349;55.640;37.692;2022-09-13T11:08:33;3.28;;;2.42;;
61483;SDS011;47349;55.640;37.692;2022-09-13T11:16:27;4.80;;;2.63;;
61483;SDS011;47349;55.640;37.692;2022-09-13T11:19:18;4.55;;;2.10;;
61483;SDS011;47349;55.640;37.692;2022-09-13T11:24:42;5.75;;;2.17;;
61483;SDS011;47349;55.640;37.692;2022-09-13T11:30:24;4.55;;;2.17;;
61483;SDS011;47349;55.640;37.692;2022-09-13T11:33:01;12.00;;;2.20;;
61483;SDS011;47349;55.640;37.692;2022-09-13T11:35:35;6.25;;;2.10;;
61483;SDS011;47349;55.640;37.692;2022-09-13T11:43:47;2.28;;;2.00;;
61483;SDS011;47349;55.640;37.692;2022-09-13T11:54:50;3.13;;;2.15;;
61483;SDS011;47349;55.640;37.692;2022-09-13T11:57:23;4.15;;;2.15;;
61483;SDS011;47349;55.640;37.692;2022-09-13T11:59:54;3.22;;;2.15;;
61483;SDS011;47349;55.640;37.692;2022-09-13T12:07:50;3.53;;;1.95;;
61483;SDS011;47349;55.640;37.692;2022-09-13T12:13:35;8.48;;;2.15;;
61483;SDS011;47349;55.640;37.692;2022-09-13T12:16:10;4.10;;;2.20;;
61483;SDS011;47349;55.640;37.692;2022-09-13T12:18:45;5.10;;;2.15;;
61483;SDS011;47349;55.640;37.692;2022-09-13T12:21:21;3.55;;;2.28;;
61483;SDS011;47349;55.640;37.692;2022-09-13T12:26:51;5.30;;;2.42;;
61483;SDS011;47349;55.640;37.692;2022-09-13T12:29:47;4.40;;;2.33;;
61483;SDS011;47349;55.640;37.692;2022-09-13T12:32:19;4.63;;;2.33;;
61483;SDS011;47349;55.640;37.692;2022-09-13T12:34:53;4.25;;;1.92;;
61483;SDS011;47349;55.640;37.692;2022-09-13T12:37:31;2.83;;;1.70;;
61483;SDS011;47349;55.640;37.692;2022-09-13T12:40:23;1.95;;;1.75;;
61483;SDS011;47349;55.640;37.692;2022-09-13T12:42:56;3.40;;;1.80;;
61483;SDS011;47349;55.640;37.692;2022-09-13T12:51:32;4.00;;;1.92;;
61483;SDS011;47349;55.640;37.692;2022-09-13T13:03:03;3.17;;;2.40;;
61483;SDS011;47349;55.640;37.692;2022-09-13T13:05:38;8.90;;;2.95;;
61483;SDS011;47349;55.640;37.692;2022-09-13T13:11:07;6.43;;;2.38;;
61483;SDS011;47349;55.640;37.692;2022-09-13T13:14:01;3.85;;;2.40;;
61483;SDS011;47349;55.640;37.692;2022-09-13T13:16:36;2.80;;;2.40;;
61483;SDS011;47349;55.640;37.692;2022-09-13T13:19:26;4.65;;;2.47;;
61483;SDS011;47349;55.640;37.692;2022-09-13T13:31:32;6.00;;;2.30;;
61483;SDS011;47349;55.640;37.692;2022-09-13T13:37:04;5.38;;;2.70;;
61483;SDS011;47349;55.640;37.692;2022-09-13T13:40:10;5.93;;;2.90;;
61483;SDS011;47349;55.640;37.692;2022-09-13T13:43:38;7.00;;;2.60;;
61483;SDS011;47349;55.640;37.692;2022-09-13T13:46:27;5.80;;;2.60;;
61483;SDS011;47349;55.640;37.692;2022-09-13T13:57:56;4.30;;;2.67;;
61483;SDS011;47349;55.640;37.692;2022-09-13T14:00:46;7.10;;;2.90;;
61483;SDS011;47349;55.640;37.692;2022-09-13T14:03:40;7.22;;;2.88;;
61483;SDS011;47349;55.640;37.692;2022-09-13T14:07:17;4.10;;;2.85;;
61483;SDS011;47349;55.640;37.692;2022-09-13T14:12:46;4.13;;;2.50;;
61483;SDS011;47349;55.640;37.692;2022-09-13T14:18:58;7.80;;;3.50;;
61483;SDS011;47349;55.640;37.692;2022-09-13T14:24:55;3.35;;;2.95;;
61483;SDS011;47349;55.640;37.692;2022-09-13T14:27:34;6.00;;;2.80;;
61483;SDS011;47349;55.640;37.692;2022-09-13T14:33:41;5.32;;;2.85;;
61483;SDS011;47349;55.640;37.692;2022-09-13T14:36:22;3.75;;;2.50;;
61483;SDS011;47349;55.640;37.692;2022-09-13T14:39:10;4.07;;;2.50;;
61483;SDS011;47349;55.640;37.692;2022-09-13T14:41:47;6.20;;;2.90;;
61483;SDS011;47349;55.640;37.692;2022-09-13T14:44:44;4.93;;;3.50;;
61483;SDS011;47349;55.640;37.692;2022-09-13T14:47:47;4.93;;;2.90;;
61483;SDS011;47349;55.640;37.692;2022-09-13T14:50:34;8.00;;;3.30;;
61483;SDS011;47349;55.640;37.692;2022-09-13T14:57:09;4.72;;;2.88;;
61483;SDS011;47349;55.640;37.692;2022-09-13T15:01:02;8.02;;;3.55;;
61483;SDS011;47349;55.640;37.692;2022-09-13T15:03:51;4.00;;;3.00;;
61483;SDS011;47349;55.640;37.692;2022-09-13T15:06:39;4.32;;;3.50;;
61483;SDS011;47349;55.640;37.692;2022-09-13T15:09:26;6.28;;;3.38;;
61483;SDS011;47349;55.640;37.692;2022-09-13T15:12:19;4.03;;;2.85;;
61483;SDS011;47349;55.640;37.692;2022-09-13T15:18:03;4.28;;;2.83;;
61483;SDS011;47349;55.640;37.692;2022-09-13T15:21:01;10.45;;;3.65;;
61483;SDS011;47349;55.640;37.692;2022-09-13T15:23:50;7.22;;;3.33;;
61483;SDS011;47349;55.640;37.692;2022-09-13T15:26:33;5.53;;;3.00;;
61483;SDS011;47349;55.640;37.692;2022-09-13T15:29:33;4.45;;;2.90;;
61483;SDS011;47349;55.640;37.692;2022-09-13T15:32:33;4.07;;;2.90;;
61483;SDS011;47349;55.640;37.692;2022-09-13T15:35:28;3.08;;;2.70;;
61483;SDS011;47349;55.640;37.692;2022-09-13T15:38:54;9.38;;;2.90;;
61483;SDS011;47349;55.640;37.692;2022-09-13T15:41:12;4.55;;;3.03;;
61483;SDS011;47349;55.640;37.692;2022-09-13T15:43:49;5.82;;;2.90;;
61483;SDS011;47349;55.640;37.692;2022-09-13T15:46:21;7.07;;;3.00;;
61483;SDS011;47349;55.640;37.692;2022-09-13T15:49:03;4.70;;;2.97;;
61483;SDS011;47349;55.640;37.692;2022-09-13T15:51:40;5.75;;;3.28;;
61483;SDS011;47349;55.640;37.692;2022-09-13T15:54:25;6.07;;;3.22;;
61483;SDS011;47349;55.640;37.692;2022-09-13T15:57:24;5.07;;;2.88;;
61483;SDS011;47349;55.640;37.692;2022-09-13T15:59:53;5.43;;;3.03;;
61483;SDS011;47349;55.640;37.692;2022-09-13T16:02:35;4.28;;;2.70;;
61483;SDS011;47349;55.640;37.692;2022-09-13T16:05:08;4.30;;;3.10;;
61483;SDS011;47349;55.640;37.692;2022-09-13T16:07:46;5.00;;;3.22;;
61483;SDS011;47349;55.640;37.692;2022-09-13T16:10:23;6.15;;;3.88;;
61483;SDS011;47349;55.640;37.692;2022-09-13T16:12:52;6.13;;;3.38;;
61483;SDS011;47349;55.640;37.692;2022-09-13T16:15:34;3.28;;;2.92;;
61483;SDS011;47349;55.640;37.692;2022-09-13T16:18:15;8.05;;;4.40;;
61483;SDS011;47349;55.640;37.692;2022-09-13T16:20:57;6.55;;;3.45;;
61483;SDS011;47349;55.640;37.692;2022-09-13T16:23:38;5.10;;;3.83;;
61483;SDS011;47349;55.640;37.692;2022-09-13T16:26:06;5.10;;;3.53;;
61483;SDS011;47349;55.640;37.692;2022-09-13T16:28:47;6.10;;;4.22;;
61483;SDS011;47349;55.640;37.692;2022-09-13T16:31:18;9.13;;;3.67;;
61483;SDS011;47349;55.640;37.692;2022-09-13T16:33:47;8.43;;;3.92;;
61483;SDS011;47349;55.640;37.692;2022-09-13T16:39:03;5.72;;;4.18;;
61483;SDS011;47349;55.640;37.692;2022-09-13T16:41:48;4.75;;;3.35;;
61483;SDS011;47349;55.640;37.692;2022-09-13T16:44:16;6.75;;;4.15;;
61483;SDS011;47349;55.640;37.692;2022-09-13T16:47:35;9.50;;;3.88;;
61483;SDS011;47349;55.640;37.692;2022-09-13T16:50:11;7.55;;;3.97;;
61483;SDS011;47349;55.640;37.692;2022-09-13T16:52:46;7.40;;;3.95;;
61483;SDS011;47349;55.640;37.692;2022-09-13T16:55:28;5.38;;;4.05;;
61483;SDS011;47349;55.640;37.692;2022-09-13T16:57:56;8.02;;;4.40;;
61483;SDS011;47349;55.640;37.692;2022-09-13T17:00:24;6.13;;;4.20;;
61483;SDS011;47349;55.640;37.692;2022-09-13T17:02:55;8.52;;;4.20;;
61483;SDS011;47349;55.640;37.692;2022-09-13T17:05:23;5.63;;;3.70;;
61483;SDS011;47349;55.640;37.692;2022-09-13T17:08:07;5.70;;;3.53;;
61483;SDS011;47349;55.640;37.692;2022-09-13T17:10:36;8.40;;;4.20;;
61483;SDS011;47349;55.640;37.692;2022-09-13T17:13:18;8.43;;;3.70;;
61483;SDS011;47349;55.640;37.692;2022-09-13T17:15:59;9.55;;;4.35;;
61483;SDS011;47349;55.640;37.692;2022-09-13T17:18:48;5.82;;;3.38;;
61483;SDS011;47349;55.640;37.692;2022-09-13T17:21:52;9.85;;;5.07;;
61483;SDS011;47349;55.640;37.692;2022-09-13T17:24:37;11.18;;;5.55;;
61483;SDS011;47349;55.640;37.692;2022-09-13T17:27:05;6.30;;;3.95;;
61483;SDS011;47349;55.640;37.692;2022-09-13T17:29:49;7.70;;;4.40;;
61483;SDS011;47349;55.640;37.692;2022-09-13T17:32:19;6.07;;;3.90;;
61483;SDS011;47349;55.640;37.692;2022-09-13T17:35:32;7.18;;;3.75;;
61483;SDS011;47349;55.640;37.692;2022-09-13T17:38:01;6.80;;;4.22;;
61483;SDS011;47349;55.640;37.692;2022-09-13T17:40:45;7.43;;;4.80;;
61483;SDS011;47349;55.640;37.692;2022-09-13T17:43:14;4.97;;;4.30;;
61483;SDS011;47349;55.640;37.692;2022-09-13T17:46:01;11.57;;;6.45;;
61483;SDS011;47349;55.640;37.692;2022-09-13T17:48:36;16.20;;;8.13;;
61483;SDS011;47349;55.640;37.692;2022-09-13T17:51:22;9.27;;;5.03;;
61483;SDS011;47349;55.640;37.692;2022-09-13T17:53:54;10.48;;;6.55;;
61483;SDS011;47349;55.640;37.692;2022-09-13T17:59:17;23.83;;;11.30;;
61483;SDS011;47349;55.640;37.692;2022-09-13T18:01:49;9.80;;;4.95;;
61483;SDS011;47349;55.640;37.692;2022-09-13T18:04:20;23.50;;;11.48;;
61483;SDS011;47349;55.640;37.692;2022-09-13T18:07:02;7.45;;;4.53;;
61483;SDS011;47349;55.640;37.692;2022-09-13T18:09:43;10.00;;;4.97;;
61483;SDS011;47349;55.640;37.692;2022-09-13T18:12:24;12.13;;;7.40;;
61483;SDS011;47349;55.640;37.692;2022-09-13T18:14:54;9.85;;;7.05;;
61483;SDS011;47349;55.640;37.692;2022-09-13T18:17:39;7.03;;;5.30;;
61483;SDS011;47349;55.640;37.692;2022-09-13T18:20:25;7.88;;;5.30;;
61483;SDS011;47349;55.640;37.692;2022-09-13T18:22:54;10.40;;;5.50;;
61483;SDS011;47349;55.640;37.692;2022-09-13T18:25:37;11.48;;;7.00;;
61483;SDS011;47349;55.640;37.692;2022-09-13T18:28:13;7.00;;;5.17;;
61483;SDS011;47349;55.640;37.692;2022-09-13T18:30:49;10.93;;;7.28;;
61483;SDS011;47349;55.640;37.692;2022-09-13T18:33:19;11.98;;;6.03;;
61483;SDS011;47349;55.640;37.692;2022-09-13T18:36:02;7.07;;;5.32;;
61483;SDS011;47349;55.640;37.692;2022-09-13T18:39:07;7.45;;;4.60;;
61483;SDS011;47349;55.640;37.692;2022-09-13T18:41:59;7.68;;;4.90;;
61483;SDS011;47349;55.640;37.692;2022-09-13T18:44:41;9.90;;;5.90;;
61483;SDS011;47349;55.640;37.692;2022-09-13T18:47:10;8.00;;;4.97;;
61483;SDS011;47349;55.640;37.692;2022-09-13T18:49:43;10.40;;;5.45;;
61483;SDS011;47349;55.640;37.692;2022-09-13T18:52:11;7.85;;;4.95;;
61483;SDS011;47349;55.640;37.692;2022-09-13T18:54:43;9.70;;;5.30;;
61483;SDS011;47349;55.640;37.692;2022-09-13T18:57:12;10.38;;;5.25;;
61483;SDS011;47349;55.640;37.692;2022-09-13T18:59:58;6.88;;;5.60;;
61483;SDS011;47349;55.640;37.692;2022-09-13T19:02:30;11.10;;;5.45;;
61483;SDS011;47349;55.640;37.692;2022-09-13T19:05:13;9.25;;;6.35;;
61483;SDS011;47349;55.640;37.692;2022-09-13T19:08:09;8.93;;;5.03;;
61483;SDS011;47349;55.640;37.692;2022-09-13T19:10:57;10.20;;;5.55;;
61483;SDS011;47349;55.640;37.692;2022-09-13T19:13:43;9.95;;;6.93;;
61483;SDS011;47349;55.640;37.692;2022-09-13T19:16:25;8.93;;;5.65;;
61483;SDS011;47349;55.640;37.692;2022-09-13T19:19:10;6.78;;;5.13;;
61483;SDS011;47349;55.640;37.692;2022-09-13T19:21:56;5.47;;;4.30;;
61483;SDS011;47349;55.640;37.692;2022-09-13T19:24:39;9.25;;;6.13;;
61483;SDS011;47349;55.640;37.692;2022-09-13T19:27:20;8.15;;;5.50;;
61483;SDS011;47349;55.640;37.692;2022-09-13T19:30:03;8.40;;;6.30;;
61483;SDS011;47349;55.640;37.692;2022-09-13T19:32:48;12.10;;;7.05;;
61483;SDS011;47349;55.640;37.692;2022-09-13T19:35:39;11.43;;;7.53;;
61483;SDS011;47349;55.640;37.692;2022-09-13T19:38:23;11.55;;;7.95;;
61483;SDS011;47349;55.640;37.692;2022-09-13T19:41:09;10.25;;;6.60;;
61483;SDS011;47349;55.640;37.692;2022-09-13T19:44:02;8.70;;;6.18;;
61483;SDS011;47349;55.640;37.692;2022-09-13T19:47:30;10.30;;;6.55;;
61483;SDS011;47349;55.640;37.692;2022-09-13T19:50:11;7.22;;;6.32;;
61483;SDS011;47349;55.640;37.692;2022-09-13T19:53:03;9.65;;;6.65;;
61483;SDS011;47349;55.640;37.692;2022-09-13T19:55:46;22.20;;;14.13;;
61483;SDS011;47349;55.640;37.692;2022-09-13T19:58:21;7.78;;;6.55;;
61483;SDS011;47349;55.640;37.692;2022-09-13T20:01:07;8.40;;;6.47;;
61483;SDS011;47349;55.640;37.692;2022-09-13T20:03:59;20.77;;;13.38;;